X

Important NEWS



New Hub Active

Miami is our new hub! Old members can request transfer via hr@dlxairways.net

Thank you very much and have nice flight.


Deluxe Airways.

X

Tours



Hello again, we created one nice test tour for all pilots to attend. also this is ment to be testing of our tour system

Available Tours

If you find some issues please inform us.

Thank you very much and have nice flight.


Deluxe Airways.

 METAR AND TAF INFORMATION
ArrayMETAR FOR LHBP
115181651 5 LHBP 231300Z 25005KT CAVOK 18/05 Q1026 NOSIG LHBP 2019-03-23T13:00:00Z 47.42 19.27 18.0 5.0 250 5 6.21 30.295275 TRUE VFR METAR 185.0 LHBP 231230Z VRB03KT CAVOK 18/05 Q1026 NOSIG LHBP 2019-03-23T12:30:00Z 47.42 19.27 18.0 5.0 0 3 6.21 30.295275 TRUE VFR METAR 185.0 LHBP 231200Z 28005KT 230V350 CAVOK 17/04 Q1027 NOSIG LHBP 2019-03-23T12:00:00Z 47.42 19.27 17.0 4.0 280 5 6.21 30.324802 TRUE VFR METAR 185.0 LHBP 231130Z 27006KT 220V350 CAVOK 17/06 Q1027 NOSIG LHBP 2019-03-23T11:30:00Z 47.42 19.27 17.0 6.0 270 6 6.21 30.324802 TRUE VFR METAR 185.0

 AIRPORT MAP

 RUNWAY INFORMATION
Runway 13L Runway length 12162 ft Runway width 149 ft
Runway elevation 495 ft Runway displaced threshold 0 ft Runway heading 132
Runway 31R Runway length 12162 ft Runway width 149 ft
Runway elevation 417 ft Runway displaced threshold 0 ft Runway heading 312
Runway 13R Runway length 9875 ft Runway width 149 ft
Runway elevation 450 ft Runway displaced threshold 0 ft Runway heading 132
Runway 31L Runway length 9875 ft Runway width 149 ft
Runway elevation 450 ft Runway displaced threshold 0 ft Runway heading 312

 AIRPORT FREQUENCIES
Type ACC Name BUDAPEST A Frequency 129.7 MHZ
Type APP Name DIRECTOR Frequency 119.5 MHZ
Type APRS Name Apron Guid Frequency 122.45 MHZ
Type APRW Name Apron Guid Frequency 131.55 MHZ
Type ATIS Name ATIS Frequency 132.375 MHZ
Type CDC Name Delivery Frequency 134.55 MHZ
Type GND Name GND Frequency 121.9 MHZ
Type TWR Name TWR Frequency 118.1 MHZ

 AIRPORT NEAR NAVIGATION AIDS
Type VOR-DME Name Budapest Frequency 117300 KHZ
Type VOR-DME Name Monor Frequency 112500 KHZ
Type NDB Name Monor Frequency 288 KHZ
Type VOR-DME Name Tapiosap Frequency 115900 KHZ
Type NDB Name Tapiosap Frequency 306 KHZ



Powered by Virtual Airlines Manager [v2.6.2]

Template code change by DeluxeAir